Time;durP1;ratioP1;P1;durP2;ratioP2;P2;SDS_P1;SDS_P2;PMS_P1;PMS_P2;Temp;Humidity;BMP_temperature;BMP_pressure;BME280_temperature;BME280_humidity;BME280_pressure;Samples;Min_cycle;Max_cycle;Signal;HPM_P1;HPM_P2
2022/08/25 00:01:47;;;;;;;8.88;4.45;;;;;;;;;;5066465;28;20522;-73
2022/08/25 00:04:18;;;;;;;11.48;4.00;;;;;;;;;;5066231;28;20052;-73
2022/08/25 00:06:49;;;;;;;10.80;3.97;;;;;;;;;;5064417;28;20045;-73
2022/08/25 00:09:24;;;;;;;6.45;3.65;;;;;;;;;;5066525;28;20052;-73
2022/08/25 00:11:55;;;;;;;8.63;4.20;;;;;;;;;;5065798;28;20052;-78
2022/08/25 00:14:35;;;;;;;11.68;5.60;;;;;;;;;;5066266;28;20052;-73
2022/08/25 00:17:06;;;;;;;8.90;4.18;;;;;;;;;;5066342;28;20119;-73
2022/08/25 00:19:37;;;;;;;8.90;4.28;;;;;;;;;;5066394;28;20060;-72
2022/08/25 00:22:08;;;;;;;14.05;4.53;;;;;;;;;;5065984;28;20059;-75
2022/08/25 00:24:38;;;;;;;8.95;4.63;;;;;;;;;;5065768;28;20052;-73
2022/08/25 00:27:11;;;;;;;8.20;4.07;;;;;;;;;;5066065;28;20049;-72
2022/08/25 00:29:41;;;;;;;10.00;4.18;;;;;;;;;;5065764;28;20526;-72
2022/08/25 00:32:12;;;;;;;12.85;4.10;;;;;;;;;;5065983;28;20055;-73
2022/08/25 00:34:43;;;;;;;6.50;3.57;;;;;;;;;;5065995;28;20526;-73
2022/08/25 00:37:14;;;;;;;15.43;4.25;;;;;;;;;;5065726;28;20603;-73
2022/08/25 00:39:45;;;;;;;9.90;4.40;;;;;;;;;;5065626;28;20049;-72
2022/08/25 00:42:15;;;;;;;8.32;3.30;;;;;;;;;;5066504;28;20059;-73
2022/08/25 00:44:45;;;;;;;8.93;3.90;;;;;;;;;;5066032;28;20419;-72
2022/08/25 00:47:16;;;;;;;6.82;3.55;;;;;;;;;;5065738;28;20423;-72
2022/08/25 00:49:53;;;;;;;7.25;3.22;;;;;;;;;;5065712;28;20060;-73
2022/08/25 00:52:33;;;;;;;7.60;3.60;;;;;;;;;;5064500;28;20056;-72
2022/08/25 00:55:17;;;;;;;5.28;3.30;;;;;;;;;;5073702;28;20044;-72
2022/08/25 00:57:59;;;;;;;5.90;3.40;;;;;;;;;;5069112;28;20060;-73
2022/08/25 01:00:37;;;;;;;5.97;3.08;;;;;;;;;;5067191;28;20068;-72
2022/08/25 01:03:11;;;;;;;8.70;3.25;;;;;;;;;;5068987;28;20083;-73
2022/08/25 01:05:43;;;;;;;9.50;3.65;;;;;;;;;;5069227;28;20052;-73
2022/08/25 01:08:17;;;;;;;7.78;3.13;;;;;;;;;;5068278;28;20041;-73
2022/08/25 01:10:49;;;;;;;9.73;3.28;;;;;;;;;;5069326;28;20045;-73
2022/08/25 01:13:47;;;;;;;9.77;4.13;;;;;;;;;;5069032;28;20041;-73
2022/08/25 01:16:18;;;;;;;6.55;4.00;;;;;;;;;;5057219;28;20065;-72
2022/08/25 01:18:55;;;;;;;9.00;3.85;;;;;;;;;;5069116;28;20396;-74
2022/08/25 01:21:27;;;;;;;7.20;3.45;;;;;;;;;;5068940;28;20044;-73
2022/08/25 01:23:59;;;;;;;13.10;3.85;;;;;;;;;;5069166;28;20144;-73
2022/08/25 01:26:32;;;;;;;6.25;3.33;;;;;;;;;;5069231;28;20048;-73
2022/08/25 01:29:24;;;;;;;6.40;4.15;;;;;;;;;;5069291;28;20053;-73
2022/08/25 01:32:01;;;;;;;9.80;3.85;;;;;;;;;;5069330;28;20487;-74
2022/08/25 01:34:34;;;;;;;14.68;4.57;;;;;;;;;;5068978;28;20047;-73
2022/08/25 01:37:04;;;;;;;7.97;3.50;;;;;;;;;;5068872;28;20036;-73
2022/08/25 01:39:38;;;;;;;6.53;3.75;;;;;;;;;;5068336;28;20048;-73
2022/08/25 01:42:42;;;;;;;11.23;4.72;;;;;;;;;;5068879;28;20040;-71
2022/08/25 01:45:13;;;;;;;12.65;4.75;;;;;;;;;;5068798;28;20052;-73
2022/08/25 01:47:43;;;;;;;6.95;3.60;;;;;;;;;;5068549;28;20052;-72
2022/08/25 01:50:14;;;;;;;11.63;4.38;;;;;;;;;;5068976;28;20052;-72
2022/08/25 01:52:50;;;;;;;7.13;4.03;;;;;;;;;;5069140;28;20048;-73
2022/08/25 01:55:22;;;;;;;9.00;4.55;;;;;;;;;;5068790;28;20044;-73
2022/08/25 01:57:52;;;;;;;17.33;5.10;;;;;;;;;;5068169;28;20061;-73
2022/08/25 02:00:23;;;;;;;9.45;4.63;;;;;;;;;;5068379;28;20840;-72
2022/08/25 02:02:53;;;;;;;10.15;4.22;;;;;;;;;;5068147;28;20045;-73
2022/08/25 02:05:23;;;;;;;8.02;4.50;;;;;;;;;;5067654;28;20049;-72
2022/08/25 02:07:55;;;;;;;10.38;4.93;;;;;;;;;;5068506;28;20044;-73
2022/08/25 02:10:27;;;;;;;9.30;4.55;;;;;;;;;;5068597;28;20052;-73
2022/08/25 02:12:58;;;;;;;8.05;4.53;;;;;;;;;;5067560;28;20645;-73
2022/08/25 02:15:29;;;;;;;9.27;4.80;;;;;;;;;;5068026;28;20040;-73
2022/08/25 02:17:59;;;;;;;8.63;4.10;;;;;;;;;;5068260;28;20048;-73
2022/08/25 02:20:29;;;;;;;7.72;4.38;;;;;;;;;;5067826;28;20044;-73
2022/08/25 02:22:58;;;;;;;9.20;4.35;;;;;;;;;;5067678;28;20051;-73
2022/08/25 02:25:29;;;;;;;8.32;4.03;;;;;;;;;;5068155;28;20419;-73
2022/08/25 02:27:59;;;;;;;6.20;3.67;;;;;;;;;;5068029;28;20051;-73
2022/08/25 02:30:29;;;;;;;9.07;4.47;;;;;;;;;;5068220;28;20391;-73
2022/08/25 02:32:59;;;;;;;9.23;3.97;;;;;;;;;;5068111;28;20052;-73
2022/08/25 02:35:29;;;;;;;6.72;3.90;;;;;;;;;;5067794;28;20048;-73
2022/08/25 02:37:59;;;;;;;7.15;3.65;;;;;;;;;;5068055;28;20052;-73
2022/08/25 02:40:29;;;;;;;6.13;3.88;;;;;;;;;;5068272;28;20415;-73
2022/08/25 02:42:59;;;;;;;9.30;4.13;;;;;;;;;;5066026;28;20055;-72
2022/08/25 02:45:29;;;;;;;7.47;4.22;;;;;;;;;;5067537;28;20052;-73
2022/08/25 02:47:59;;;;;;;6.95;4.07;;;;;;;;;;5067666;28;20500;-73
2022/08/25 02:50:29;;;;;;;6.85;3.92;;;;;;;;;;5067774;28;20389;-73
2022/08/25 02:52:59;;;;;;;6.18;3.78;;;;;;;;;;5066343;28;20076;-73
2022/08/25 02:55:29;;;;;;;9.40;4.78;;;;;;;;;;5067395;28;20423;-73
2022/08/25 02:58:02;;;;;;;8.63;3.78;;;;;;;;;;5067658;28;20052;-73
2022/08/25 03:00:32;;;;;;;10.20;4.00;;;;;;;;;;5067775;28;20063;-72
2022/08/25 03:03:03;;;;;;;10.65;4.85;;;;;;;;;;5067299;28;20055;-72
2022/08/25 03:05:33;;;;;;;11.63;3.88;;;;;;;;;;5067372;28;20055;-72
2022/08/25 03:08:04;;;;;;;10.48;4.10;;;;;;;;;;5066853;28;20053;-72
2022/08/25 03:10:35;;;;;;;8.30;4.88;;;;;;;;;;5066014;28;20395;-73
2022/08/25 03:13:05;;;;;;;6.63;3.97;;;;;;;;;;5067310;28;20049;-73
2022/08/25 03:15:36;;;;;;;8.90;4.63;;;;;;;;;;5067002;28;20041;-72
2022/08/25 03:18:06;;;;;;;9.05;4.55;;;;;;;;;;5065925;28;20530;-72
2022/08/25 03:20:38;;;;;;;7.30;4.18;;;;;;;;;;5067058;28;20057;-72
2022/08/25 03:23:08;;;;;;;11.00;4.65;;;;;;;;;;5067092;28;20052;-73
2022/08/25 03:28:31;;;;;;;8.88;5.22;;;;;;;;;;5066817;28;21237;-73
2022/08/25 03:31:02;;;;;;;8.77;5.65;;;;;;;;;;5066634;28;20052;-72
2022/08/25 03:33:32;;;;;;;8.32;5.10;;;;;;;;;;5065373;28;20102;-73
2022/08/25 03:36:02;;;;;;;9.00;4.38;;;;;;;;;;5066536;28;20044;-73
2022/08/25 03:38:32;;;;;;;9.88;4.88;;;;;;;;;;5064982;28;20503;-73
2022/08/25 03:41:21;;;;;;;11.05;5.57;;;;;;;;;;5066539;28;20424;-73
2022/08/25 03:43:56;;;;;;;9.02;4.28;;;;;;;;;;5066965;28;20048;-73
2022/08/25 03:46:29;;;;;;;8.32;4.53;;;;;;;;;;5066577;28;20056;-73
2022/08/25 03:49:02;;;;;;;8.57;4.68;;;;;;;;;;5048623;28;20049;-73
2022/08/25 03:51:35;;;;;;;8.52;4.32;;;;;;;;;;5066784;28;20511;-73
2022/08/25 03:54:08;;;;;;;9.02;4.85;;;;;;;;;;5066730;28;20044;-73
2022/08/25 03:56:38;;;;;;;9.65;5.25;;;;;;;;;;5066219;28;20440;-72
2022/08/25 03:59:09;;;;;;;7.80;5.50;;;;;;;;;;5066321;28;20056;-73
2022/08/25 04:01:41;;;;;;;11.57;5.28;;;;;;;;;;5066379;28;20052;-72
2022/08/25 04:04:14;;;;;;;15.55;6.22;;;;;;;;;;5067143;28;20048;-73
2022/08/25 04:06:44;;;;;;;9.70;5.65;;;;;;;;;;5064974;28;20407;-73
2022/08/25 04:09:14;;;;;;;11.88;5.68;;;;;;;;;;5066429;28;20052;-73
2022/08/25 04:11:43;;;;;;;11.95;5.63;;;;;;;;;;5067435;28;20048;-73
2022/08/25 04:14:17;;;;;;;12.85;5.32;;;;;;;;;;5066308;28;20048;-73
2022/08/25 04:16:46;;;;;;;10.48;5.45;;;;;;;;;;5065837;28;20056;-72
2022/08/25 04:19:16;;;;;;;12.88;6.05;;;;;;;;;;5064804;28;20053;-73
2022/08/25 04:21:46;;;;;;;14.35;6.85;;;;;;;;;;5064450;28;20053;-72
2022/08/25 04:24:16;;;;;;;11.68;6.90;;;;;;;;;;5066065;28;20045;-73
2022/08/25 04:26:49;;;;;;;11.77;7.28;;;;;;;;;;5064610;28;20376;-72
2022/08/25 04:29:22;;;;;;;12.77;6.28;;;;;;;;;;5068178;28;20051;-73
2022/08/25 04:31:54;;;;;;;12.18;6.68;;;;;;;;;;5070641;28;20488;-73
2022/08/25 04:34:26;;;;;;;10.88;6.55;;;;;;;;;;5070428;28;20052;-73
2022/08/25 04:37:01;;;;;;;10.38;6.75;;;;;;;;;;5069910;28;20133;-73
2022/08/25 04:39:31;;;;;;;10.95;6.00;;;;;;;;;;5070197;28;20059;-72
2022/08/25 04:42:02;;;;;;;12.32;5.60;;;;;;;;;;5068549;28;20052;-72
2022/08/25 04:44:32;;;;;;;13.23;6.80;;;;;;;;;;5070142;28;20036;-73
2022/08/25 04:47:03;;;;;;;9.98;5.53;;;;;;;;;;5068373;28;20127;-73
2022/08/25 04:49:32;;;;;;;10.05;6.07;;;;;;;;;;5070026;28;20067;-72
2022/08/25 04:52:02;;;;;;;11.65;6.10;;;;;;;;;;5069848;28;20040;-73
2022/08/25 04:54:41;;;;;;;13.57;5.97;;;;;;;;;;5068825;28;20040;-72
2022/08/25 04:57:10;;;;;;;12.60;5.88;;;;;;;;;;5069446;28;20044;-73
2022/08/25 04:59:40;;;;;;;12.70;5.82;;;;;;;;;;5069901;28;20056;-72
2022/08/25 05:02:10;;;;;;;10.18;5.78;;;;;;;;;;5069964;28;20044;-73
2022/08/25 05:04:40;;;;;;;15.27;5.68;;;;;;;;;;5069930;28;20051;-73
2022/08/25 05:07:10;;;;;;;9.85;5.18;;;;;;;;;;5067605;28;20055;-73
2022/08/25 05:09:40;;;;;;;9.27;5.25;;;;;;;;;;5069359;28;20044;-72
2022/08/25 05:12:10;;;;;;;10.60;6.22;;;;;;;;;;5069411;28;20057;-77
2022/08/25 05:14:40;;;;;;;11.68;5.88;;;;;;;;;;5067837;28;20534;-73
2022/08/25 05:17:10;;;;;;;10.05;6.18;;;;;;;;;;5069621;28;20111;-73
2022/08/25 05:19:39;;;;;;;;;;;;;;;;;;5070006;28;20071;-73
2022/08/25 05:22:09;;;;;;;9.38;5.53;;;;;;;;;;5069456;28;19924;-72
2022/08/25 05:24:39;;;;;;;9.95;5.85;;;;;;;;;;5069741;28;20545;-73
2022/08/25 05:27:09;;;;;;;11.00;6.07;;;;;;;;;;5068851;28;20119;-72
2022/08/25 05:29:40;;;;;;;14.13;6.10;;;;;;;;;;5068256;28;20048;-73
2022/08/25 05:32:09;;;;;;;11.98;6.90;;;;;;;;;;5069141;28;20036;-72
2022/08/25 05:34:39;;;;;;;12.75;7.05;;;;;;;;;;5067813;28;20049;-72
2022/08/25 05:37:08;;;;;;;;;;;;;;;;;;5069015;28;20052;-72
2022/08/25 05:39:39;;;;;;;12.63;6.20;;;;;;;;;;5067992;28;19931;-73
2022/08/25 05:42:08;;;;;;;;;;;;;;;;;;5068766;28;20518;-73
2022/08/25 05:44:39;;;;;;;12.35;6.10;;;;;;;;;;5068877;28;19924;-73
2022/08/25 05:47:08;;;;;;;;;;;;;;;;;;5069347;28;20056;-72
2022/08/25 05:49:38;;;;;;;8.57;6.00;;;;;;;;;;5068812;28;20303;-72
2022/08/25 05:52:07;;;;;;;;;;;;;;;;;;5068203;28;20052;-73
2022/08/25 05:54:38;;;;;;;12.35;5.70;;;;;;;;;;5066913;28;19924;-72
2022/08/25 05:57:08;;;;;;;10.82;6.03;;;;;;;;;;5068405;28;20487;-72
2022/08/25 05:59:38;;;;;;;10.90;7.03;;;;;;;;;;5068673;28;20044;-72
2022/08/25 06:04:57;;;;;;;12.95;7.22;;;;;;;;;;5068899;28;20407;-72
2022/08/25 06:07:28;;;;;;;12.02;6.35;;;;;;;;;;5068194;28;20052;-72
2022/08/25 06:09:58;;;;;;;10.85;6.80;;;;;;;;;;5068659;28;20399;-73
2022/08/25 06:12:31;;;;;;;14.68;6.28;;;;;;;;;;5068838;28;20077;-72
2022/08/25 06:15:02;;;;;;;11.88;6.30;;;;;;;;;;5068378;28;20067;-73
2022/08/25 06:17:34;;;;;;;11.35;7.25;;;;;;;;;;5068346;28;20055;-72
2022/08/25 06:20:05;;;;;;;11.90;6.20;;;;;;;;;;5068511;28;20044;-72
2022/08/25 06:22:36;;;;;;;13.02;5.85;;;;;;;;;;5068677;28;20040;-72
2022/08/25 06:25:08;;;;;;;10.32;6.28;;;;;;;;;;5068017;28;20060;-73
2022/08/25 06:27:39;;;;;;;11.80;7.15;;;;;;;;;;5068090;28;20037;-72
2022/08/25 06:30:11;;;;;;;12.13;6.22;;;;;;;;;;5067889;28;20059;-73
2022/08/25 06:32:45;;;;;;;15.32;6.90;;;;;;;;;;5067862;28;20048;-73
2022/08/25 06:35:18;;;;;;;11.75;6.05;;;;;;;;;;5067859;28;20048;-73
2022/08/25 06:37:49;;;;;;;12.02;6.32;;;;;;;;;;5068264;28;20480;-72
2022/08/25 06:40:18;;;;;;;18.35;6.07;;;;;;;;;;5068004;28;20048;-72
2022/08/25 06:42:49;;;;;;;10.93;6.90;;;;;;;;;;5067184;28;20056;-73
2022/08/25 06:45:18;;;;;;;;;;;;;;;;;;5066756;28;20052;-73
2022/08/25 06:47:48;;;;;;;9.98;5.50;;;;;;;;;;5066987;28;19928;-73
2022/08/25 06:50:17;;;;;;;;;;;;;;;;;;5068358;28;20044;-72
2022/08/25 06:52:47;;;;;;;9.50;5.32;;;;;;;;;;5067128;28;19944;-72
2022/08/25 06:55:17;;;;;;;;;;;;;;;;;;5068224;28;20056;-73
2022/08/25 06:57:47;;;;;;;12.80;6.65;;;;;;;;;;5067721;28;19920;-73
2022/08/25 07:00:17;;;;;;;11.95;7.05;;;;;;;;;;5067303;28;20052;-72
2022/08/25 07:02:47;;;;;;;11.60;6.80;;;;;;;;;;5067283;28;20055;-72
2022/08/25 07:05:21;;;;;;;14.35;7.93;;;;;;;;;;5066982;28;20057;-73
2022/08/25 07:08:01;;;;;;;10.75;7.28;;;;;;;;;;5067307;28;20400;-73
2022/08/25 07:10:34;;;;;;;13.88;7.57;;;;;;;;;;5066900;28;20095;-72
2022/08/25 07:13:05;;;;;;;13.85;7.30;;;;;;;;;;5065522;28;20049;-72
2022/08/25 07:15:38;;;;;;;13.77;6.78;;;;;;;;;;5067710;28;20535;-72
2022/08/25 07:18:10;;;;;;;12.60;6.88;;;;;;;;;;5067052;28;20154;-72
2022/08/25 07:20:41;;;;;;;12.23;5.88;;;;;;;;;;5067571;28;20040;-72
2022/08/25 07:23:11;;;;;;;14.18;7.38;;;;;;;;;;5064624;28;20044;-72
2022/08/25 07:25:41;;;;;;;13.27;7.43;;;;;;;;;;5065896;28;20049;-72
2022/08/25 07:28:10;;;;;;;;;;;;;;;;;;5067638;28;20058;-72
2022/08/25 07:30:40;;;;;;;13.57;7.80;;;;;;;;;;5066478;28;20302;-73
2022/08/25 07:33:10;;;;;;;13.77;7.88;;;;;;;;;;5067153;28;20052;-73
2022/08/25 07:35:42;;;;;;;15.70;8.13;;;;;;;;;;5067150;28;20056;-72
2022/08/25 07:38:11;;;;;;;;;;;;;;;;;;5067318;28;20111;-72
2022/08/25 07:40:53;;;;;;;9.05;5.78;;;;;;;;;;5066999;28;19924;-72
2022/08/25 07:43:24;;;;;;;13.15;8.07;;;;;;;;;;5067785;28;20040;-72
2022/08/25 07:45:54;;;;;;;15.30;8.93;;;;;;;;;;5066690;28;20419;-72
2022/08/25 07:48:24;;;;;;;12.82;6.60;;;;;;;;;;5066513;28;20048;-72
2022/08/25 07:50:54;;;;;;;11.80;6.60;;;;;;;;;;5066891;28;20071;-72
2022/08/25 07:53:25;;;;;;;11.23;7.25;;;;;;;;;;5066522;28;20514;-72
2022/08/25 07:55:54;;;;;;;17.17;6.78;;;;;;;;;;5065718;28;20048;-72
2022/08/25 07:58:24;;;;;;;15.50;7.03;;;;;;;;;;5066412;28;20056;-72
2022/08/25 08:00:54;;;;;;;13.40;7.00;;;;;;;;;;5066557;28;20420;-73
2022/08/25 08:03:24;;;;;;;12.18;7.82;;;;;;;;;;5066002;28;20040;-72
2022/08/25 08:06:15;;;;;;;14.35;7.32;;;;;;;;;;5066740;28;20500;-72
2022/08/25 08:08:48;;;;;;;11.35;7.68;;;;;;;;;;5066789;28;20051;-72
2022/08/25 08:11:32;;;;;;;11.80;6.75;;;;;;;;;;5066442;28;20059;-72
2022/08/25 08:14:04;;;;;;;12.18;7.20;;;;;;;;;;5066186;28;20052;-72
2022/08/25 08:16:33;;;;;;;;;;;;;;;;;;5066966;28;20526;-72
2022/08/25 08:19:03;;;;;;;12.80;6.47;;;;;;;;;;5066470;28;19927;-72
2022/08/25 08:21:35;;;;;;;15.43;7.47;;;;;;;;;;5065869;28;20044;-72
2022/08/25 08:24:06;;;;;;;15.18;8.48;;;;;;;;;;5066092;28;20547;-72
2022/08/25 08:26:56;;;;;;;15.18;8.10;;;;;;;;;;5066387;28;20075;-72
2022/08/25 08:29:27;;;;;;;14.73;9.57;;;;;;;;;;5066682;28;20408;-73
2022/08/25 08:31:59;;;;;;;14.73;8.95;;;;;;;;;;5066051;28;20041;-73
2022/08/25 08:34:31;;;;;;;14.35;9.32;;;;;;;;;;5065811;28;20067;-72
2022/08/25 08:37:01;;;;;;;13.63;8.82;;;;;;;;;;5066426;28;20047;-73
2022/08/25 08:39:31;;;;;;;13.68;7.90;;;;;;;;;;5066395;28;20048;-72
2022/08/25 08:42:41;;;;;;;11.35;8.00;;;;;;;;;;5065121;28;20393;-73
2022/08/25 08:45:30;;;;;;;16.80;8.25;;;;;;;;;;5066226;28;20047;-72
2022/08/25 08:48:34;;;;;;;12.80;7.82;;;;;;;;;;5066129;28;20045;-72
2022/08/25 08:51:28;;;;;;;16.40;9.55;;;;;;;;;;5066426;28;20044;-72
2022/08/25 08:54:09;;;;;;;16.38;8.75;;;;;;;;;;5066810;28;20056;-73
2022/08/25 08:56:49;;;;;;;14.75;8.23;;;;;;;;;;5065932;28;20071;-73
2022/08/25 08:59:28;;;;;;;18.08;8.27;;;;;;;;;;5063636;28;20056;-72
2022/08/25 09:02:01;;;;;;;12.93;7.70;;;;;;;;;;5065110;28;20049;-73
2022/08/25 09:04:44;;;;;;;14.05;7.40;;;;;;;;;;5065864;28;20057;-72
2022/08/25 09:07:18;;;;;;;12.90;7.63;;;;;;;;;;5064662;28;20056;-72
2022/08/25 09:09:50;;;;;;;13.88;8.50;;;;;;;;;;5066040;28;20052;-72
2022/08/25 09:12:43;;;;;;;13.68;8.10;;;;;;;;;;5065288;28;20091;-72
2022/08/25 09:19:23;;;;;;;15.73;8.05;;;;;;;;;;5069258;28;20053;-72
2022/08/25 09:22:32;;;;;;;14.57;8.40;;;;;;;;;;5069659;28;20047;-71
2022/08/25 09:25:44;;;;;;;16.60;7.43;;;;;;;;;;5067290;28;20063;-71
2022/08/25 09:28:40;;;;;;;15.95;9.38;;;;;;;;;;5069259;28;20040;-72
2022/08/25 09:31:22;;;;;;;17.17;8.93;;;;;;;;;;5069650;28;20052;-69
2022/08/25 09:33:59;;;;;;;17.60;8.77;;;;;;;;;;5069484;28;20055;-71
2022/08/25 09:36:32;;;;;;;15.30;8.50;;;;;;;;;;5068788;28;20040;-72
2022/08/25 09:39:06;;;;;;;16.05;9.50;;;;;;;;;;5069767;28;20040;-71
2022/08/25 09:42:04;;;;;;;17.20;8.27;;;;;;;;;;5069127;28;20056;-72
2022/08/25 09:44:43;;;;;;;16.10;8.43;;;;;;;;;;5067106;28;20076;-73
2022/08/25 09:47:26;;;;;;;14.57;8.23;;;;;;;;;;5068941;28;20053;-72
2022/08/25 09:50:01;;;;;;;15.32;8.60;;;;;;;;;;5067087;28;20055;-77
2022/08/25 09:52:35;;;;;;;14.48;7.90;;;;;;;;;;5068590;28;20052;-73
2022/08/25 09:55:05;;;;;;;15.48;8.60;;;;;;;;;;5066619;28;20522;-72
2022/08/25 09:57:43;;;;;;;;;;;;;;;;;;5067758;28;20060;-72
2022/08/25 10:00:21;;;;;;;12.88;7.05;;;;;;;;;;5067790;28;19948;-71
2022/08/25 10:03:02;;;;;;;19.60;10.77;;;;;;;;;;5069063;28;20511;-70
2022/08/25 10:05:56;;;;;;;17.17;9.30;;;;;;;;;;5068033;28;20353;-72
2022/08/25 10:08:51;;;;;;;15.38;9.27;;;;;;;;;;5068671;28;20056;-72
2022/08/25 10:11:37;;;;;;;14.32;8.20;;;;;;;;;;5068596;28;20045;-72
2022/08/25 10:14:18;;;;;;;14.20;8.57;;;;;;;;;;5068075;28;20047;-72
2022/08/25 10:16:49;;;;;;;16.60;9.48;;;;;;;;;;5068697;28;20060;-72
2022/08/25 10:19:22;;;;;;;15.88;8.80;;;;;;;;;;5068065;28;20522;-74
2022/08/25 10:22:08;;;;;;;17.65;9.98;;;;;;;;;;5069432;28;20053;-73
2022/08/25 10:24:40;;;;;;;28.70;10.75;;;;;;;;;;5067948;28;20507;-73
2022/08/25 10:27:49;;;;;;;21.50;10.35;;;;;;;;;;5067409;28;20483;-71
2022/08/25 10:30:34;;;;;;;17.77;9.40;;;;;;;;;;5068091;28;20067;-71
2022/08/25 10:33:21;;;;;;;17.45;11.43;;;;;;;;;;5068014;28;20051;-73
2022/08/25 10:35:58;;;;;;;18.88;11.00;;;;;;;;;;5067883;28;20044;-72
2022/08/25 10:38:42;;;;;;;20.95;10.20;;;;;;;;;;5067670;28;20048;-72
2022/08/25 10:41:33;;;;;;;20.30;11.13;;;;;;;;;;5065725;28;20059;-73
2022/08/25 10:47:43;;;;;;;21.33;11.25;;;;;;;;;;5067775;28;20111;-75
2022/08/25 10:50:22;;;;;;;20.30;10.38;;;;;;;;;;5066781;28;20059;-73
2022/08/25 10:53:07;;;;;;;16.83;9.00;;;;;;;;;;5067655;28;20044;-72
2022/08/25 10:56:12;;;;;;;16.45;9.25;;;;;;;;;;5067435;28;20503;-71
2022/08/25 10:59:16;;;;;;;21.88;11.02;;;;;;;;;;5024389;28;20063;-72
2022/08/25 11:02:15;;;;;;;17.23;9.48;;;;;;;;;;5067622;28;20053;-71
2022/08/25 11:05:05;;;;;;;20.38;10.55;;;;;;;;;;4998315;28;20079;-71
2022/08/25 11:07:41;;;;;;;;;;;;;;;;;;5067600;28;20512;-71
2022/08/25 11:10:25;;;;;;;27.92;13.32;;;;;;;;;;5068045;28;19921;-71
2022/08/25 11:12:58;;;;;;;23.60;10.80;;;;;;;;;;5066382;28;20049;-71
2022/08/25 11:15:44;;;;;;;30.85;12.52;;;;;;;;;;5067458;28;20048;-72
2022/08/25 11:18:40;;;;;;;27.83;12.98;;;;;;;;;;5066856;28;20045;-73
2022/08/25 11:21:18;;;;;;;28.23;11.52;;;;;;;;;;5066949;28;20058;-75
2022/08/25 11:24:02;;;;;;;19.40;10.60;;;;;;;;;;5066855;28;20079;-71
2022/08/25 11:26:36;;;;;;;28.10;10.98;;;;;;;;;;5065472;28;20049;-71
2022/08/25 11:29:17;;;;;;;19.38;10.60;;;;;;;;;;5066803;28;20727;-73
2022/08/25 11:31:53;;;;;;;40.78;10.77;;;;;;;;;;5067020;28;20048;-72
2022/08/25 11:34:25;;;;;;;21.05;9.25;;;;;;;;;;5067073;28;20059;-71
2022/08/25 11:37:26;;;;;;;18.27;9.70;;;;;;;;;;5067337;28;20045;-74
2022/08/25 11:40:10;;;;;;;13.55;9.20;;;;;;;;;;5059983;28;20060;-72
2022/08/25 11:42:46;;;;;;;21.20;9.60;;;;;;;;;;5066442;28;20476;-73
2022/08/25 11:45:40;;;;;;;20.95;10.50;;;;;;;;;;5066945;28;20053;-72
2022/08/25 11:48:33;;;;;;;17.73;10.80;;;;;;;;;;5067015;28;20060;-72
2022/08/25 11:51:39;;;;;;;22.15;10.73;;;;;;;;;;5066781;28;20051;-73
2022/08/25 11:54:23;;;;;;;18.35;9.25;;;;;;;;;;5055470;28;20057;-73
2022/08/25 11:57:02;;;;;;;16.88;10.38;;;;;;;;;;5066955;28;20048;-72
2022/08/25 11:59:56;;;;;;;15.70;10.52;;;;;;;;;;5066876;28;20055;-73
2022/08/25 12:02:39;;;;;;;17.75;12.82;;;;;;;;;;5055321;28;20057;-72
2022/08/25 12:05:10;;;;;;;23.95;11.77;;;;;;;;;;5066969;28;20503;-76
2022/08/25 12:10:52;;;;;;;;;;;;;;;;;;5066507;28;20527;-71
2022/08/25 12:14:19;;;;;;;15.30;9.50;;;;;;;;;;5066577;28;19924;-74
2022/08/25 12:16:59;;;;;;;18.55;9.55;;;;;;;;;;4984430;28;20054;-75
2022/08/25 12:19:35;;;;;;;13.73;8.45;;;;;;;;;;4984714;28;20427;-74
2022/08/25 12:22:08;;;;;;;19.73;9.48;;;;;;;;;;5048116;28;20060;-74
2022/08/25 12:24:41;;;;;;;18.95;9.77;;;;;;;;;;5066692;28;20041;-74
2022/08/25 12:27:25;;;;;;;15.55;8.80;;;;;;;;;;5066143;28;20045;-74
2022/08/25 12:30:13;;;;;;;15.48;8.68;;;;;;;;;;5066188;28;20048;-74
2022/08/25 12:33:12;;;;;;;14.85;8.82;;;;;;;;;;5065911;28;21272;-74
2022/08/25 12:36:07;;;;;;;21.52;8.88;;;;;;;;;;5065777;28;20052;-74
2022/08/25 12:38:48;;;;;;;24.00;17.05;;;;;;;;;;5066159;28;20407;-75
2022/08/25 12:41:30;;;;;;;13.82;8.32;;;;;;;;;;5066323;28;20052;-75
2022/08/25 12:44:40;;;;;;;12.15;8.10;;;;;;;;;;5066329;28;20052;-75
2022/08/25 12:47:25;;;;;;;20.38;9.05;;;;;;;;;;5066284;28;20048;-74
2022/08/25 12:50:23;;;;;;;16.65;9.85;;;;;;;;;;5067337;28;20055;-75
2022/08/25 12:52:56;;;;;;;13.10;8.52;;;;;;;;;;5069807;28;20051;-75
2022/08/25 12:55:27;;;;;;;14.30;9.48;;;;;;;;;;5069886;28;20071;-74
2022/08/25 12:58:00;;;;;;;12.57;8.75;;;;;;;;;;5069849;28;20052;-75
2022/08/25 13:00:45;;;;;;;18.98;8.88;;;;;;;;;;5067776;28;20072;-74
2022/08/25 13:03:49;;;;;;;21.77;9.50;;;;;;;;;;5069248;28;20055;-75
2022/08/25 13:06:25;;;;;;;15.45;8.25;;;;;;;;;;5069497;28;20071;-75
2022/08/25 13:09:04;;;;;;;12.95;8.38;;;;;;;;;;5069522;28;20048;-76
2022/08/25 13:11:56;;;;;;;14.18;8.50;;;;;;;;;;5069957;28;20044;-75
2022/08/25 13:14:42;;;;;;;13.93;8.38;;;;;;;;;;5057523;28;20538;-74
2022/08/25 13:17:25;;;;;;;15.60;7.68;;;;;;;;;;5069344;28;20038;-73
2022/08/25 13:20:16;;;;;;;19.58;8.15;;;;;;;;;;5069433;28;20045;-75
2022/08/25 13:22:49;;;;;;;13.30;7.63;;;;;;;;;;5069392;28;20040;-75
2022/08/25 13:25:29;;;;;;;13.15;7.72;;;;;;;;;;5069561;28;20044;-74
2022/08/25 13:28:05;;;;;;;16.50;8.50;;;;;;;;;;5069155;28;20640;-75
2022/08/25 13:30:39;;;;;;;12.50;7.75;;;;;;;;;;5069608;28;20048;-77
2022/08/25 13:33:20;;;;;;;11.50;7.25;;;;;;;;;;5070026;28;20053;-75
2022/08/25 13:38:43;;;;;;;12.95;7.07;;;;;;;;;;5069281;28;20044;-73
2022/08/25 13:41:22;;;;;;;15.15;7.30;;;;;;;;;;5069119;28;20808;-74
2022/08/25 13:43:57;;;;;;;13.90;7.32;;;;;;;;;;5068980;28;20041;-74
2022/08/25 13:46:30;;;;;;;11.13;7.03;;;;;;;;;;5068550;28;20064;-75
2022/08/25 13:49:06;;;;;;;13.32;6.68;;;;;;;;;;5068784;28;20044;-73
2022/08/25 13:51:40;;;;;;;17.05;11.98;;;;;;;;;;5068610;28;20052;-75
2022/08/25 13:54:26;;;;;;;14.07;7.47;;;;;;;;;;5068808;28;20063;-76
2022/08/25 13:57:16;;;;;;;12.57;6.45;;;;;;;;;;5068604;28;20051;-73
2022/08/25 13:59:55;;;;;;;9.85;6.38;;;;;;;;;;5068986;28;20044;-75
2022/08/25 14:02:49;;;;;;;11.32;5.63;;;;;;;;;;5068691;28;20526;-74
2022/08/25 14:05:33;;;;;;;14.15;6.10;;;;;;;;;;5067137;28;20053;-75
2022/08/25 14:08:06;;;;;;;15.50;6.03;;;;;;;;;;5068544;28;20047;-80
2022/08/25 14:11:05;;;;;;;10.38;6.32;;;;;;;;;;5068219;28;20057;-74
2022/08/25 14:13:44;;;;;;;15.57;6.07;;;;;;;;;;5067830;28;20055;-74
2022/08/25 14:16:22;;;;;;;14.48;5.13;;;;;;;;;;5068344;28;20408;-73
2022/08/25 14:18:57;;;;;;;12.88;5.93;;;;;;;;;;5068095;28;20044;-74
2022/08/25 14:21:29;;;;;;;11.45;5.80;;;;;;;;;;5068302;28;20048;-75
2022/08/25 14:24:02;;;;;;;13.23;5.40;;;;;;;;;;5066614;28;20059;-74
2022/08/25 14:26:32;;;;;;;15.18;5.85;;;;;;;;;;5068961;28;20028;-74
2022/08/25 14:29:02;;;;;;;10.05;5.72;;;;;;;;;;5068219;28;20051;-75
2022/08/25 14:31:41;;;;;;;15.77;5.65;;;;;;;;;;5067919;28;20047;-75
2022/08/25 14:34:17;;;;;;;14.98;5.45;;;;;;;;;;5067867;28;20053;-74
2022/08/25 14:36:48;;;;;;;12.55;5.45;;;;;;;;;;5067593;28;20056;-74
2022/08/25 14:39:19;;;;;;;9.48;5.47;;;;;;;;;;5068278;28;20056;-75
2022/08/25 14:41:49;;;;;;;10.50;5.22;;;;;;;;;;5067641;28;20051;-74
2022/08/25 14:44:21;;;;;;;10.40;5.03;;;;;;;;;;5068124;28;20049;-75
2022/08/25 14:46:56;;;;;;;13.43;5.63;;;;;;;;;;5067523;28;20414;-75
2022/08/25 14:49:32;;;;;;;10.60;5.05;;;;;;;;;;5067775;28;20052;-75
2022/08/25 14:52:29;;;;;;;8.10;5.25;;;;;;;;;;5067783;28;20044;-74
2022/08/25 14:54:59;;;;;;;14.10;5.50;;;;;;;;;;5065821;28;20067;-77
2022/08/25 14:57:29;;;;;;;7.50;4.60;;;;;;;;;;5067329;28;20052;-74
2022/08/25 14:59:59;;;;;;;11.02;4.90;;;;;;;;;;5066389;28;20052;-76
2022/08/25 15:02:41;;;;;;;12.48;5.70;;;;;;;;;;5067533;28;20048;-78
2022/08/25 15:05:19;;;;;;;11.23;4.97;;;;;;;;;;5067395;28;20041;-74
2022/08/25 15:10:40;;;;;;;16.98;5.75;;;;;;;;;;5067340;28;21061;-75
2022/08/25 15:13:12;;;;;;;7.85;5.18;;;;;;;;;;5067440;28;20059;-74
2022/08/25 15:15:44;;;;;;;8.80;5.38;;;;;;;;;;5067551;28;20048;-74
2022/08/25 15:18:21;;;;;;;12.50;5.53;;;;;;;;;;5066930;28;20048;-79
2022/08/25 15:20:52;;;;;;;6.85;4.80;;;;;;;;;;5067279;28;20395;-73
2022/08/25 15:23:25;;;;;;;8.52;5.15;;;;;;;;;;5067092;28;20040;-74
2022/08/25 15:25:55;;;;;;;9.80;5.65;;;;;;;;;;5067323;28;20044;-73
2022/08/25 15:28:25;;;;;;;14.57;6.82;;;;;;;;;;5066705;28;20052;-74
2022/08/25 15:30:55;;;;;;;7.63;5.28;;;;;;;;;;5066741;28;20055;-74
2022/08/25 15:33:25;;;;;;;11.73;5.35;;;;;;;;;;5066928;28;20047;-74
2022/08/25 15:35:55;;;;;;;9.05;4.82;;;;;;;;;;5067143;28;20056;-72
2022/08/25 15:38:26;;;;;;;6.30;4.60;;;;;;;;;;5066897;28;20574;-75
2022/08/25 15:40:55;;;;;;;10.43;5.07;;;;;;;;;;5066701;28;20094;-81
2022/08/25 15:43:25;;;;;;;7.60;4.75;;;;;;;;;;5066273;28;20044;-74
2022/08/25 15:45:56;;;;;;;9.00;4.85;;;;;;;;;;5066585;28;20056;-74
2022/08/25 15:48:26;;;;;;;9.95;5.13;;;;;;;;;;5066502;28;20055;-72
2022/08/25 15:51:00;;;;;;;5.90;4.60;;;;;;;;;;5065732;28;20067;-74
2022/08/25 15:53:33;;;;;;;6.80;4.90;;;;;;;;;;5066545;28;20518;-73